CWH5 weather

Wingham (Inglis Field) Airport
Wingham, Ontario, Canada

Public forecast

Using degrees Celsius for public forecast. Weather courtesy of forecast.io.

METAR (pilot weather report)

Closest report is Waterloo Airport, 49.1 nm (91.0 km) ESE. Retrieved 2019/07/18 14:00 UTC (39 minutes ago):

CYKF 181400Z AUTO 11007KT 9SM OVC012 23/21 A2997 RMK SLP146 DENSITY ALT 2100FT

TAF (pilot weather forecast)

Closest forecast is Waterloo Airport, 49.1 nm (91.0 km) ESE. Retrieved 2019/07/18 14:39 UTC (22 seconds ago):

TAF CYKF 181338Z 1814/1902 13006KT P6SM BKN015 TEMPO 1814/1816 BKN025 FM181600 18006KT P6SM BKN030 FM181800 20008KT P6SM FEW040 RMK FCST BASED ON AUTO OBS. NXT FCST BY 182000Z